Aérodrome :
LOGIN :

S'inscrire | Disclaimer

   EN    FR    IT 

 










Légende :    VFR   VFR Marginal   IFR   IFR Intensif   IFR Très Intensif
Visi : 
Plafond : 
>= 8 km
>= 3000ft
5 à 8 km
1000 à 3000 ft
1500m à 5 km
500 à 1000 ft
800 à 1500m
200 à 500 ft
< 800m
< 200 ft
Symboles :   Orages  Brouillard  Fortes neiges  Fortes précipitations  Vent > 20 kt
SIGMETs :   Divers  Orages  Givrage  Turbulence  Onde Orograph.  Cendres Volcan.







- Altitude de l'aérodrome : 1302 ft
- Code IATA : GNB
- Voir les cartes d'approche


LFLS - Grenoble / St. Geoirs

DERNIER METAR :
  • 191300Z AUTO 00000KT 9999 FEW046 07/02 Q1016 TEMPO 12010KT SHRA SCT030TCU

METARs EXPIRÉS :
  • 191230Z AUTO 23002KT 9999 FEW019 SCT048 BKN062 07/03 Q1016 TEMPO 12010KT SHRA SCT030TCU
  • 191200Z AUTO 30002KT 9999 -RA FEW042 OVC056 07/03 Q1017 TEMPO 12010KT SHRA SCT030TCU
  • 191130Z AUTO VRB03KT 9999 FEW038 BKN062 OVC072 07/03 Q1017 TEMPO SHRA SCT030TCU
  • 191100Z AUTO VRB02KT 9999 -RA FEW042 SCT048 BKN054 07/04 Q1017 TEMPO 32012KT SHRA SCT030TCU
  • 191030Z AUTO 00000KT 9999 BKN058 BKN070 OVC082 06/04 Q1017 TEMPO 12010KT SHRA SCT030TCU

TAF TAF LFLS
Valide du 19 à 09h jusqu'au 20 à 09h UTC


190800Z 1909/2009 VRB02KT 9999 SCT030 BKN075
BECMG 1909/1911 32012KT
PROB30
TEMPO 1912/1915 12010KT SHRA SCT030TCU
TEMPO 1918/1922 4900 RA OVC025
PROB30
TEMPO 1918/1922 2800 -SNRA OVC020
BECMG 1922/1924 VRB02KT BKN030
BECMG 2003/2005 NSC
BECMG 2007/2009 BKN055
ATIS : +33 4 76 65 55 89
Pas de NOTAMs connus pour ce terrain.
2 SIGMETs publiés pour la FIR Marseille (LFMM) :
 
Turbulence forte
LFMM SIGMET 6 VALID 191100/191500 LFPW
LFMM MARSEILLE FIR/UIR SEV TURB FCST WI N4330 E00900 - N4315 E00945 - N4245 E00945 - N4230 E00800 - N4315 E00715 - N4330 E00900 SFC/FL040 STNR NC=
Onde orographique forte
LFMM SIGMET 5 VALID 191100/191500 LFPW
LFMM MARSEILLE FIR/UIR SEV MTW FCST E OF E00900 SFC/FL250 STNR NC=



MET'MAP, la Météo Aéronautique d'un coup d'oeil ! - Copyright ORBIFLY Décembre 2007 - Disclaimer

ORBIFLY MET'MAP TEAM :

Programmation & Développement : Alexandra Zaïnal
Conception & Développement : Baudouin d'Aumeries
Co-Programmation & Développement : Marc-Olivier Méhu
Soutien technique & logistique : Manuel Goepfert

Contact : metmap@orbifly.com




SOURCES & CREDITS :

   NOAA